Time;durP1;ratioP1;P1;durP2;ratioP2;P2;SDS_P1;SDS_P2;PMS_P1;PMS_P2;Temp;Humidity;BMP_temperature;BMP_pressure;BME280_temperature;BME280_humidity;BME280_pressure;Samples;Min_cycle;Max_cycle;Signal;HPM_P1;HPM_P2
2024/03/23 00:00:41;;;;;;;16.48;4.20;;;;;;;10.60;72.24;99188.59;6069388;23;20121;-93
2024/03/23 00:03:22;;;;;;;12.02;4.05;;;;;;;10.55;71.92;99186.25;6019759;23;20022;-93
2024/03/23 00:05:49;;;;;;;15.13;4.47;;;;;;;10.58;72.23;99189.63;6020574;23;20023;-93
2024/03/23 00:12:06;;;;;;;12.23;4.07;;;;;;;10.54;71.98;99184.56;6069239;23;20025;-93
2024/03/23 00:14:33;;;;;;;17.13;4.45;;;;;;;10.54;71.88;99179.31;6020217;23;20078;-93
2024/03/23 00:20:26;;;;;;;18.13;4.35;;;;;;;10.53;72.05;99182.03;6044036;23;20027;-93
2024/03/23 00:22:53;;;;;;;16.45;4.38;;;;;;;10.50;72.19;99169.94;5996671;23;20077;-93
2024/03/23 00:29:07;;;;;;;22.70;5.20;;;;;;;10.50;71.99;99161.22;6069252;23;20045;-93
2024/03/23 00:35:25;;;;;;;15.05;4.55;;;;;;;10.47;72.13;99151.69;6069206;23;20053;-93
2024/03/23 00:37:51;;;;;;;15.73;4.80;;;;;;;10.45;72.02;99148.34;5998596;23;20469;-93
2024/03/23 00:40:18;;;;;;;18.38;4.82;;;;;;;10.44;72.08;99146.66;6019933;23;20023;-92
2024/03/23 00:46:00;;;;;;;16.67;4.72;;;;;;;10.40;72.14;99137.25;6043352;23;20027;-93
2024/03/23 00:48:27;;;;;;;18.17;5.00;;;;;;;10.38;72.41;99123.34;6020036;23;20030;-93
2024/03/23 00:51:12;;;;;;;17.25;4.93;;;;;;;10.34;72.38;99132.38;5991791;23;20026;-93
2024/03/23 00:53:44;;;;;;;13.95;4.75;;;;;;;10.35;72.42;99123.56;6042159;23;20019;-93
2024/03/23 00:56:10;;;;;;;17.98;5.10;;;;;;;10.37;72.47;99112.00;6020044;23;20034;-93
2024/03/23 00:58:35;;;;;;;19.08;5.65;;;;;;;10.38;72.72;99110.19;6019853;23;20093;-93
2024/03/23 01:01:21;;;;;;;26.00;6.32;;;;;;;10.34;73.06;99109.56;6019890;23;20383;-92
2024/03/23 01:03:47;;;;;;;18.85;5.38;;;;;;;10.39;72.71;99104.81;6043433;23;20022;-93
2024/03/23 01:06:12;;;;;;;17.83;6.03;;;;;;;10.41;72.86;99102.09;6019725;23;20339;-93
2024/03/23 01:09:00;;;;;;;21.90;6.82;;;;;;;10.38;73.00;99107.56;6043579;23;20023;-93
2024/03/23 01:11:26;;;;;;;22.45;6.78;;;;;;;10.40;73.05;99109.13;6019558;23;20034;-92
2024/03/23 01:13:54;;;;;;;20.35;6.18;;;;;;;10.40;72.95;99100.41;6019573;23;20026;-93
2024/03/23 01:16:39;;;;;;;18.38;5.85;;;;;;;10.37;73.22;99090.94;6019830;23;20030;-93
2024/03/23 01:19:06;;;;;;;20.75;6.25;;;;;;;10.41;73.24;99084.53;6043448;23;20023;-93
2024/03/23 01:21:31;;;;;;;17.52;5.60;;;;;;;10.42;73.18;99088.00;6019776;23;20023;-93
2024/03/23 01:24:11;;;;;;;23.17;6.20;;;;;;;10.39;73.29;99085.59;6019727;23;20458;-93
2024/03/23 01:26:37;;;;;;;15.80;5.68;;;;;;;10.45;73.12;99087.81;6019621;23;20458;-93
2024/03/23 01:29:02;;;;;;;14.85;5.50;;;;;;;10.43;72.76;99085.25;6019824;23;20034;-93
2024/03/23 01:31:40;;;;;;;17.50;5.53;;;;;;;10.40;73.00;99088.09;6019525;23;20027;-93
2024/03/23 01:34:06;;;;;;;18.35;5.72;;;;;;;10.42;73.16;99086.22;6019687;23;20023;-92
2024/03/23 01:36:32;;;;;;;23.10;5.85;;;;;;;10.43;72.96;99092.31;6043217;23;20030;-93
2024/03/23 01:38:58;;;;;;;18.88;7.10;;;;;;;10.43;73.23;99089.66;6043153;23;20022;-92
2024/03/23 01:41:24;;;;;;;16.98;6.35;;;;;;;10.44;73.18;99088.78;6019543;23;20497;-92
2024/03/23 01:47:37;;;;;;;18.55;6.38;;;;;;;10.45;73.06;99074.66;6068598;23;20517;-93
2024/03/23 01:53:17;;;;;;;20.55;6.88;;;;;;;10.44;73.12;99059.84;6043168;23;20019;-93
2024/03/23 01:55:43;;;;;;;22.00;7.03;;;;;;;10.44;73.13;99073.00;6014881;23;20034;-93
2024/03/23 02:01:49;;;;;;;19.40;7.22;;;;;;;10.43;72.92;99055.47;6039842;23;20071;-93
2024/03/23 02:04:34;;;;;;;17.15;7.05;;;;;;;10.36;73.39;99049.78;6014982;23;20090;-92
2024/03/23 02:06:59;;;;;;;22.35;7.60;;;;;;;10.39;73.12;99046.94;6016389;23;20023;-93
2024/03/23 02:09:25;;;;;;;24.05;7.43;;;;;;;10.38;73.18;99053.16;6016579;23;20069;-92
2024/03/23 02:15:05;;;;;;;18.65;5.45;;;;;;;10.34;72.76;99050.84;6040400;23;20024;-92
2024/03/23 02:17:34;;;;;;;18.08;5.20;;;;;;;10.32;72.91;99047.47;6016549;23;20062;-93
2024/03/23 02:23:46;;;;;;;14.07;5.07;;;;;;;10.26;72.60;99044.31;6041528;23;20021;-92
2024/03/23 02:29:58;;;;;;;16.33;4.63;;;;;;;10.21;72.52;99035.88;6041526;23;20096;-92
2024/03/23 02:32:47;;;;;;;17.20;4.95;;;;;;;10.12;72.34;99034.72;6016259;23;20482;-93
2024/03/23 02:35:12;;;;;;;14.95;4.65;;;;;;;10.14;72.29;99030.19;6016238;23;20030;-93
2024/03/23 02:37:38;;;;;;;13.82;4.18;;;;;;;10.08;72.28;99022.72;6016274;23;20023;-93
2024/03/23 02:40:29;;;;;;;15.85;4.38;;;;;;;10.01;72.17;99029.31;6016339;23;20490;-93
2024/03/23 02:42:55;;;;;;;13.15;3.53;;;;;;;10.02;72.49;99033.66;6016326;23;20027;-92
2024/03/23 02:45:21;;;;;;;20.67;4.57;;;;;;;9.99;72.45;99018.91;6016108;23;20027;-93
2024/03/23 02:51:10;;;;;;;16.45;3.90;;;;;;;9.94;72.27;99036.78;6039912;23;20399;-92
2024/03/23 02:57:29;;;;;;;9.65;3.05;;;;;;;9.84;72.00;99019.94;6070140;23;20461;-92
2024/03/23 02:59:55;;;;;;;17.38;3.20;;;;;;;9.83;72.39;99013.00;6044737;23;20026;-93
2024/03/23 03:02:21;;;;;;;12.68;3.88;;;;;;;9.81;72.28;99004.34;6020817;23;20022;-92
2024/03/23 03:04:47;;;;;;;14.85;4.07;;;;;;;9.78;72.49;98998.38;6020839;23;20331;-93
2024/03/23 03:07:13;;;;;;;16.38;3.97;;;;;;;9.76;72.51;98992.34;6020677;23;20354;-93
2024/03/23 03:09:39;;;;;;;12.55;3.95;;;;;;;9.74;72.50;98989.00;6020858;23;20026;-92
2024/03/23 03:12:14;;;;;;;14.82;4.20;;;;;;;9.70;72.58;98974.38;6044303;23;20026;-93
2024/03/23 03:14:40;;;;;;;11.23;4.10;;;;;;;9.73;72.64;98979.44;6020515;23;20323;-93
2024/03/23 03:20:46;;;;;;;15.43;4.78;;;;;;;9.75;72.44;99014.34;6069771;23;20467;-93
2024/03/23 03:23:58;;;;;;;15.40;4.78;;;;;;;9.69;72.74;99006.00;6020548;23;20018;-93
2024/03/23 03:26:24;;;;;;;14.90;4.30;;;;;;;9.69;72.39;98998.97;6020659;23;20027;-93
2024/03/23 03:28:53;;;;;;;19.13;5.30;;;;;;;9.67;72.65;98989.50;6020829;23;20078;-93
2024/03/23 03:31:34;;;;;;;17.52;5.05;;;;;;;9.62;72.87;98987.19;6020646;23;20025;-93
2024/03/23 03:33:59;;;;;;;17.10;4.43;;;;;;;9.64;72.60;98978.25;6020485;23;20030;-92
2024/03/23 03:36:25;;;;;;;18.00;5.00;;;;;;;9.62;72.52;98977.53;6044185;23;20027;-93
2024/03/23 03:39:07;;;;;;;25.80;5.85;;;;;;;9.56;72.85;98988.41;6020700;23;20022;-93
2024/03/23 03:41:33;;;;;;;13.32;4.85;;;;;;;9.58;72.58;98985.69;6020597;23;20046;-92
2024/03/23 03:44:02;;;;;;;20.48;5.75;;;;;;;9.56;72.59;98990.19;6020485;23;20023;-93
2024/03/23 03:49:53;;;;;;;15.93;5.07;;;;;;;9.51;72.65;98998.38;6043925;23;20394;-93
2024/03/23 03:52:19;;;;;;;20.95;6.03;;;;;;;9.47;72.98;98989.88;6043780;23;20082;-92
2024/03/23 03:55:02;;;;;;;23.70;5.22;;;;;;;9.42;73.47;98983.22;6017293;23;20472;-92
2024/03/23 04:01:08;;;;;;;20.10;5.82;;;;;;;9.43;73.06;98977.88;6040809;23;20079;-93
2024/03/23 04:03:43;;;;;;;17.13;5.95;;;;;;;9.40;73.42;98972.81;6015849;23;20026;-93
2024/03/23 04:06:12;;;;;;;20.90;6.35;;;;;;;9.37;73.55;98968.59;6015490;23;20030;-92
2024/03/23 04:08:38;;;;;;;21.85;5.50;;;;;;;9.39;73.42;98971.97;6015408;23;20365;-93
2024/03/23 04:14:51;;;;;;;28.70;6.47;;;;;;;9.40;73.31;98975.44;6040519;23;20022;-93
2024/03/23 04:20:57;;;;;;;17.52;5.60;;;;;;;9.39;73.32;98973.75;6040386;23;20025;-93
2024/03/23 04:27:03;;;;;;;18.38;5.05;;;;;;;9.37;72.94;98960.72;6040451;23;20022;-93
2024/03/23 04:29:36;;;;;;;21.90;5.93;;;;;;;9.33;73.69;98964.50;6015030;23;20028;-92
2024/03/23 04:32:02;;;;;;;15.52;5.22;;;;;;;9.35;73.45;98959.97;6015348;23;20094;-92
2024/03/23 04:34:27;;;;;;;23.67;5.53;;;;;;;9.34;73.03;98957.44;6038660;23;20019;-92
2024/03/23 04:37:11;;;;;;;25.52;6.18;;;;;;;9.30;73.73;98956.81;6015365;23;20065;-92
2024/03/23 04:39:37;;;;;;;27.33;6.35;;;;;;;9.35;73.53;98961.78;6015249;23;20023;-93
2024/03/23 04:42:03;;;;;;;23.55;5.65;;;;;;;9.34;73.27;98958.28;6015251;23;20534;-93
2024/03/23 04:47:42;;;;;;;19.77;6.13;;;;;;;9.32;73.15;98957.56;6038792;23;20030;-93
2024/03/23 04:50:10;;;;;;;21.05;6.13;;;;;;;9.30;72.83;98950.72;6015120;23;20023;-93
2024/03/23 04:59:40;;;;;;;;;;;;;;;9.15;72.91;98947.31;6043937;23;20030;-92
2024/03/23 05:02:06;;;;;;;20.02;5.28;;;;;;;9.12;72.13;98948.31;6019647;23;20328;-92
2024/03/23 05:05:08;;;;;;;16.63;5.53;;;;;;;8.98;72.94;98944.78;6019579;23;20547;-92
2024/03/23 05:07:33;;;;;;;25.20;5.95;;;;;;;8.96;72.61;98941.44;6019658;23;20078;-92
2024/03/23 05:09:59;;;;;;;27.17;7.05;;;;;;;8.89;72.92;98947.19;6019546;23;20023;-92
2024/03/23 05:17:04;;;;;;;17.60;6.55;;;;;;;8.75;73.87;98940.16;6068782;23;20026;-93
2024/03/23 05:19:30;;;;;;;29.42;8.63;;;;;;;8.77;73.56;98954.03;6019602;23;20100;-92
2024/03/23 05:21:55;;;;;;;25.23;8.13;;;;;;;8.75;73.67;98953.28;6019650;23;20379;-92
2024/03/23 05:24:44;;;;;;;30.88;8.50;;;;;;;8.70;74.57;98948.31;6019569;23;20023;-92
2024/03/23 05:27:10;;;;;;;23.20;8.02;;;;;;;8.76;74.06;98954.97;6019668;23;20043;-92
2024/03/23 05:29:35;;;;;;;33.85;9.77;;;;;;;8.75;74.39;98953.28;6019324;23;20023;-92
2024/03/23 05:32:10;;;;;;;22.23;8.85;;;;;;;8.73;74.84;98954.25;6019618;23;20045;-92
2024/03/23 05:34:35;;;;;;;31.48;9.40;;;;;;;8.78;74.25;98947.84;6043141;23;20350;-93
2024/03/23 05:37:01;;;;;;;30.65;9.93;;;;;;;8.79;74.16;98946.91;6019332;23;20098;-92
2024/03/23 05:40:05;;;;;;;28.00;9.55;;;;;;;8.77;74.74;98951.41;6019966;23;20086;-92
2024/03/23 05:42:30;;;;;;;27.17;8.82;;;;;;;8.80;74.32;98945.97;6021672;23;20026;-92
2024/03/23 05:44:56;;;;;;;34.35;9.65;;;;;;;8.81;74.34;98942.41;6021462;23;20029;-93
2024/03/23 05:51:09;;;;;;;27.65;9.30;;;;;;;8.81;74.20;98939.78;6070414;23;20152;-92
2024/03/23 05:54:00;;;;;;;26.45;8.88;;;;;;;8.76;74.59;98942.69;6021105;23;20387;-93
2024/03/23 05:57:12;;;;;;;26.02;9.65;;;;;;;8.75;74.65;98941.03;6016507;23;20030;-92
2024/03/23 05:59:37;;;;;;;27.75;10.15;;;;;;;8.79;74.48;98942.50;6016807;23;20023;-95
2024/03/23 06:02:03;;;;;;;29.48;9.07;;;;;;;8.78;74.33;98934.75;6040913;23;20024;-95
2024/03/23 06:04:30;;;;;;;28.48;10.30;;;;;;;8.78;74.45;98950.47;6016900;23;20023;-95
2024/03/23 06:06:57;;;;;;;27.10;9.40;;;;;;;8.79;74.65;98939.03;6018272;23;20027;-92
2024/03/23 06:09:23;;;;;;;22.67;9.93;;;;;;;8.78;74.43;98938.19;6016443;23;20462;-92
2024/03/23 06:11:56;;;;;;;30.85;11.02;;;;;;;8.77;74.67;98938.28;6039858;23;20063;-92
2024/03/23 06:14:21;;;;;;;27.67;10.38;;;;;;;8.80;74.63;98940.72;6017028;23;20095;-92
2024/03/23 06:17:07;;;;;;;31.88;11.02;;;;;;;8.76;74.96;98937.44;6016380;23;20462;-93
2024/03/23 06:19:32;;;;;;;29.13;10.57;;;;;;;8.80;74.39;98936.31;6016347;23;20023;-92
2024/03/23 06:25:45;;;;;;;34.33;11.25;;;;;;;8.81;74.49;98952.88;6041422;23;20018;-92
2024/03/23 06:28:49;;;;;;;28.05;11.15;;;;;;;8.79;75.09;98954.78;6016193;23;20278;-93
2024/03/23 06:31:15;;;;;;;27.58;11.25;;;;;;;8.83;74.81;98948.41;6039907;23;20019;-93
2024/03/23 06:33:42;;;;;;;32.75;11.73;;;;;;;8.83;74.98;98948.41;6016022;23;20459;-92
2024/03/23 12:11:53;;;;;;;4.82;1.75;;;;;;;16.87;51.74;98904.66;6074220;23;20445;-91
2024/03/23 12:14:19;;;;;;;4.68;1.48;;;;;;;16.23;51.23;98898.25;6020576;23;20019;-93
2024/03/23 12:16:44;;;;;;;4.80;1.13;;;;;;;15.59;51.07;98913.88;6021080;23;20027;-93
2024/03/23 12:22:35;;;;;;;3.42;1.10;;;;;;;14.05;51.96;98923.66;6044170;23;20030;-94
2024/03/23 12:25:01;;;;;;;2.70;1.05;;;;;;;13.47;52.57;98906.41;6021184;23;20458;-93
2024/03/23 12:31:14;;;;;;;2.13;1.00;;;;;;;12.28;55.23;98885.91;6069375;23;20025;-93
2024/03/23 19:40:44;;;;;;;2.65;1.15;;;;;;;7.58;60.28;98852.78;5978489;24;20023;-88
2024/03/23 21:48:03;;;;;;;5.57;2.30;;;;;;;6.38;65.84;98719.16;6067646;23;20019;-92
2024/03/23 21:50:31;;;;;;;5.90;1.75;;;;;;;6.39;64.89;98716.47;6019620;23;20026;-93
2024/03/23 21:53:09;;;;;;;4.57;1.77;;;;;;;6.35;65.90;98712.34;6019269;23;20027;-92
2024/03/23 21:56:16;;;;;;;5.50;1.55;;;;;;;6.33;66.05;98702.91;6019398;23;20027;-92
2024/03/23 21:58:41;;;;;;;4.10;1.75;;;;;;;6.35;64.48;98704.50;6019559;23;20023;-93
2024/03/23 22:01:07;;;;;;;4.10;1.90;;;;;;;6.33;64.97;98702.91;6019304;23;20065;-92
2024/03/23 22:04:00;;;;;;;4.13;1.88;;;;;;;6.28;66.65;98710.97;6019480;23;20027;-92
2024/03/23 22:06:25;;;;;;;4.75;1.80;;;;;;;6.31;65.91;98704.78;6019280;23;20031;-92
2024/03/23 22:08:51;;;;;;;5.85;1.95;;;;;;;6.31;65.77;98705.59;6042868;23;20058;-92
2024/03/23 22:11:18;;;;;;;5.97;2.13;;;;;;;6.32;66.14;98707.28;6019369;23;20027;-92
2024/03/23 22:13:44;;;;;;;8.10;2.08;;;;;;;6.31;65.66;98702.16;6019279;23;20319;-92
2024/03/23 22:16:10;;;;;;;7.38;3.08;;;;;;;6.30;66.07;98700.44;6042886;23;20042;-92
2024/03/23 22:21:59;;;;;;;5.63;2.60;;;;;;;6.28;66.31;98697.91;6043134;23;20027;-92
2024/03/23 22:24:32;;;;;;;4.35;2.10;;;;;;;6.25;67.47;98703.34;6021064;23;20061;-92
2024/03/23 22:26:58;;;;;;;;;;;;;;;6.27;68.46;98700.66;6045249;23;20022;-92
2024/03/23 22:29:38;;;;;;;3.15;2.13;;;;;;;6.27;68.14;98695.41;6021113;23;19964;-92
2024/03/23 22:32:04;;;;;;;7.40;2.45;;;;;;;6.29;66.54;98690.94;6020942;23;20027;-92
2024/03/23 22:34:30;;;;;;;8.68;2.22;;;;;;;6.29;66.49;98699.63;6021013;23;20023;-92
2024/03/23 22:37:24;;;;;;;7.53;2.42;;;;;;;6.27;68.24;98693.63;6021098;23;20022;-92
2024/03/23 22:39:49;;;;;;;7.65;2.30;;;;;;;6.32;67.23;98691.59;6044711;23;20051;-92
2024/03/23 22:42:15;;;;;;;6.82;2.00;;;;;;;6.32;66.87;98683.75;6020932;23;20022;-93
2024/03/23 22:45:32;;;;;;;8.20;2.75;;;;;;;6.32;68.53;98685.53;6020920;23;20640;-93
2024/03/23 22:51:51;;;;;;;5.95;2.22;;;;;;;6.38;66.81;98680.81;6041453;23;20026;-92
2024/03/23 22:54:17;;;;;;;6.60;2.20;;;;;;;6.41;66.83;98678.94;6015944;23;20023;-92
2024/03/23 22:56:43;;;;;;;9.13;2.50;;;;;;;6.39;66.69;98664.19;6016098;23;20095;-92
2024/03/23 22:59:37;;;;;;;6.78;2.53;;;;;;;6.38;68.17;98664.25;6016163;23;20035;-92
2024/03/23 23:02:03;;;;;;;5.28;2.45;;;;;;;6.40;66.70;98665.03;6016069;23;20370;-92
2024/03/23 23:04:33;;;;;;;5.45;2.47;;;;;;;6.40;66.39;98659.81;6016119;23;20031;-93
2024/03/23 23:07:16;;;;;;;9.63;3.17;;;;;;;6.36;67.81;98655.69;6015921;23;20350;-93
2024/03/23 23:09:42;;;;;;;7.53;3.03;;;;;;;6.39;66.35;98651.09;6015980;23;20024;-92
2024/03/23 23:12:08;;;;;;;6.85;2.65;;;;;;;6.39;66.08;98637.19;6015839;23;20029;-92
2024/03/23 23:14:50;;;;;;;5.03;2.28;;;;;;;6.36;67.43;98643.44;6015695;23;20023;-93
2024/03/23 23:17:16;;;;;;;7.05;2.70;;;;;;;6.41;66.10;98634.50;6015811;23;20028;-93
2024/03/23 23:20:09;;;;;;;5.40;2.40;;;;;;;6.35;67.13;98635.69;6015720;23;20114;-92
2024/03/23 23:22:35;;;;;;;3.58;2.58;;;;;;;6.38;65.96;98632.91;6039440;23;20020;-92
2024/03/23 23:25:35;;;;;;;5.28;2.80;;;;;;;6.30;67.19;98635.97;6039582;23;20026;-93
2024/03/23 23:28:11;;;;;;;7.68;3.38;;;;;;;6.28;66.97;98621.31;6039495;23;20027;-92
2024/03/23 23:30:37;;;;;;;6.35;2.85;;;;;;;6.28;66.16;98616.06;6015728;23;20482;-92
2024/03/23 23:33:04;;;;;;;10.27;3.45;;;;;;;6.23;67.14;98611.09;6015554;23;20035;-92
2024/03/23 23:35:30;;;;;;;7.22;3.75;;;;;;;6.20;66.54;98612.13;6015538;23;20019;-91
2024/03/23 23:38:22;;;;;;;6.03;4.00;;;;;;;6.12;68.96;98604.72;6039384;23;20023;-92
2024/03/23 23:41:33;;;;;;;9.60;3.70;;;;;;;6.11;67.64;98599.59;6039384;23;20075;-92
2024/03/23 23:43:59;;;;;;;6.65;4.10;;;;;;;6.11;66.42;98599.59;6015640;23;20019;-91
2024/03/23 23:46:38;;;;;;;9.43;4.13;;;;;;;6.06;67.48;98597.22;6042469;23;20231;-92
2024/03/23 23:49:05;;;;;;;10.05;5.22;;;;;;;6.04;66.63;98583.44;6015274;23;20468;-92
2024/03/23 23:51:49;;;;;;;8.82;4.78;;;;;;;6.00;68.43;98595.81;6015696;23;20035;-92
2024/03/23 23:54:14;;;;;;;8.68;4.95;;;;;;;6.04;67.12;98585.19;6015656;23;20019;-92
2024/03/23 23:56:50;;;;;;;8.20;4.32;;;;;;;6.02;68.36;98595.69;6039151;23;20023;-92
2024/03/23 23:59:17;;;;;;;9.02;4.70;;;;;;;6.05;67.18;98574.66;6015520;23;20031;-92
